createdAt,value
2023-02-27T00:02:06.358Z,101904.16
2023-02-27T00:04:34.239Z,101903.50
2023-02-27T00:07:03.400Z,101901.97
2023-02-27T00:09:31.045Z,101903.34
2023-02-27T00:11:59.110Z,101908.19
2023-02-27T00:14:26.986Z,101906.88
2023-02-27T00:16:54.921Z,101898.34
2023-02-27T00:19:22.630Z,101897.41
2023-02-27T00:21:50.261Z,101906.28
2023-02-27T00:24:20.014Z,101902.63
2023-02-27T00:26:47.616Z,101902.09
2023-02-27T00:29:15.436Z,101906.91
2023-02-27T00:31:43.143Z,101897.53
2023-02-27T00:34:10.860Z,101896.34
2023-02-27T00:36:38.561Z,101897.69
2023-02-27T00:39:06.265Z,101895.50
2023-02-27T00:41:35.360Z,101898.59
2023-02-27T00:44:03.044Z,101910.56
2023-02-27T00:46:30.717Z,101914.56
2023-02-27T00:48:58.466Z,101907.31
2023-02-27T00:51:27.320Z,101904.28
2023-02-27T00:53:55.296Z,101907.00
2023-02-27T00:56:22.930Z,101901.53
2023-02-27T00:58:51.958Z,101902.59
2023-02-27T01:01:19.705Z,101903.31
2023-02-27T01:03:47.981Z,101901.81
2023-02-27T01:06:15.762Z,101894.75
2023-02-27T01:08:43.680Z,101893.94
2023-02-27T01:11:11.351Z,101905.00
2023-02-27T01:13:39.161Z,101902.56
2023-02-27T01:16:10.553Z,101908.28
2023-02-27T01:18:38.238Z,101901.44
2023-02-27T01:21:06.942Z,101910.19
2023-02-27T01:23:34.645Z,101910.28
2023-02-27T01:26:02.567Z,101907.97
2023-02-27T01:28:30.203Z,101903.25
2023-02-27T01:30:57.920Z,101897.56
2023-02-27T01:33:27.082Z,101894.50
2023-02-27T01:35:54.731Z,101896.91
2023-02-27T01:38:22.438Z,101892.31
2023-02-27T01:40:50.357Z,101887.25
2023-02-27T01:43:20.867Z,101884.63
2023-02-27T01:45:49.294Z,101892.94
2023-02-27T01:48:19.949Z,101898.19
2023-02-27T01:50:54.812Z,101891.66
2023-02-27T01:53:26.125Z,101888.72
2023-02-27T01:55:55.600Z,101883.44
2023-02-27T01:58:23.812Z,101882.41
2023-02-27T02:00:51.488Z,101892.31
2023-02-27T02:03:25.203Z,101889.16
2023-02-27T02:05:55.984Z,101888.81
2023-02-27T02:08:24.881Z,101888.19
2023-02-27T02:10:53.242Z,101897.34
2023-02-27T02:13:23.695Z,101898.16
2023-02-27T02:16:03.115Z,101896.91
2023-02-27T02:18:35.683Z,101899.66
2023-02-27T02:21:35.877Z,101910.47
2023-02-27T02:24:28.515Z,101907.06
2023-02-27T02:27:08.716Z,101898.16
2023-02-27T02:30:09.710Z,101908.03
2023-02-27T02:33:02.093Z,101904.91
2023-02-27T02:35:49.336Z,101907.88
2023-02-27T02:38:43.344Z,101906.03
2023-02-27T02:41:16.464Z,101902.59
2023-02-27T02:43:50.375Z,101913.22
2023-02-27T02:46:23.385Z,101901.97
2023-02-27T02:48:54.748Z,101895.53
2023-02-27T02:51:28.722Z,101894.59
2023-02-27T02:54:02.258Z,101903.63
2023-02-27T02:56:33.400Z,101899.63
2023-02-27T02:59:04.838Z,101895.63
2023-02-27T03:01:35.860Z,101896.66
2023-02-27T03:04:07.293Z,101899.28
2023-02-27T03:06:37.662Z,101895.28
2023-02-27T03:09:11.398Z,101905.88
2023-02-27T03:11:41.905Z,101901.53
2023-02-27T03:14:14.774Z,101902.03
2023-02-27T03:16:44.527Z,101904.34
2023-02-27T03:19:15.761Z,101898.78
2023-02-27T03:21:48.965Z,101902.28
2023-02-27T03:24:21.996Z,101906.94
2023-02-27T03:26:51.520Z,101902.19
2023-02-27T03:29:22.852Z,101906.91
2023-02-27T03:31:53.303Z,101902.28
2023-02-27T03:34:24.412Z,101916.94
2023-02-27T03:36:56.037Z,101915.66
2023-02-27T03:39:29.010Z,101921.06
2023-02-27T03:42:00.900Z,101910.66
2023-02-27T03:44:32.789Z,101911.66
2023-02-27T03:47:00.534Z,101909.97
2023-02-27T03:49:28.334Z,101918.16
2023-02-27T03:51:56.004Z,101916.06
2023-02-27T03:54:28.336Z,101916.84
2023-02-27T03:57:00.129Z,101927.31
2023-02-27T03:59:28.435Z,101933.03
2023-02-27T04:01:56.798Z,101927.81
2023-02-27T04:04:25.710Z,101939.16
2023-02-27T04:07:15.611Z,101937.44
2023-02-27T04:09:57.043Z,101932.56
2023-02-27T04:12:34.583Z,101941.97
2023-02-27T04:15:08.841Z,101938.19
2023-02-27T04:17:42.096Z,101934.34
2023-02-27T04:20:21.796Z,101942.72
2023-02-27T04:22:52.887Z,101943.47
2023-02-27T04:25:43.137Z,101950.38
2023-02-27T04:28:17.484Z,101958.81
2023-02-27T04:30:58.296Z,101960.94
2023-02-27T04:33:34.354Z,101962.22
2023-02-27T04:36:07.808Z,101954.53
2023-02-27T04:38:38.760Z,101967.09
2023-02-27T04:41:11.235Z,101963.50
2023-02-27T04:43:40.554Z,101953.63
2023-02-27T04:46:11.011Z,101951.59
2023-02-27T04:48:41.783Z,101951.72
2023-02-27T04:51:13.809Z,101948.75
2023-02-27T04:53:48.140Z,101953.19
2023-02-27T04:56:18.946Z,101959.19
2023-02-27T04:58:50.422Z,101954.66
2023-02-27T05:01:19.948Z,101956.56
2023-02-27T05:03:49.909Z,101962.00
2023-02-27T05:06:19.145Z,101960.59
2023-02-27T05:08:54.046Z,101954.34
2023-02-27T05:11:27.283Z,101954.19
2023-02-27T05:13:58.736Z,101968.69
2023-02-27T05:16:33.072Z,101965.50
2023-02-27T05:19:01.716Z,101972.91
2023-02-27T05:21:32.357Z,101971.97
2023-02-27T05:24:10.750Z,101971.47
2023-02-27T05:26:53.996Z,101972.22
2023-02-27T05:29:26.021Z,101982.78
2023-02-27T05:31:57.165Z,101987.66
2023-02-27T05:34:27.993Z,101985.59
2023-02-27T05:36:59.091Z,101988.78
2023-02-27T05:39:30.190Z,101987.81
2023-02-27T05:42:02.082Z,101986.50
2023-02-27T05:44:32.780Z,101994.88
2023-02-27T05:47:02.462Z,101986.94
2023-02-27T05:49:33.541Z,101987.63
2023-02-27T05:52:03.588Z,101992.25
2023-02-27T05:54:35.438Z,101994.31
2023-02-27T05:57:09.329Z,101988.34
2023-02-27T05:59:43.493Z,101994.47
2023-02-27T06:02:11.616Z,101986.88
2023-02-27T06:04:39.415Z,101993.34
2023-02-27T06:07:08.537Z,102001.41
2023-02-27T06:09:36.571Z,101993.84
2023-02-27T06:12:05.757Z,101988.09
2023-02-27T06:14:33.466Z,101992.84
2023-02-27T06:17:01.349Z,101987.00
2023-02-27T06:19:29.049Z,101992.84
2023-02-27T06:21:56.694Z,101997.25
2023-02-27T06:24:24.348Z,101989.06
2023-02-27T06:26:52.007Z,102002.44
2023-02-27T06:29:21.024Z,102004.84
2023-02-27T06:31:48.731Z,102007.56
2023-02-27T06:34:16.488Z,102005.97
2023-02-27T06:36:44.324Z,102012.66
2023-02-27T06:39:12.031Z,102011.16
2023-02-27T06:41:40.257Z,102001.00
2023-02-27T06:44:07.951Z,102016.97
2023-02-27T06:46:37.261Z,102015.84
2023-02-27T06:49:04.963Z,102025.78
2023-02-27T06:51:32.955Z,102028.66
2023-02-27T06:54:00.635Z,102030.69
2023-02-27T06:56:28.608Z,102026.19
2023-02-27T06:58:58.059Z,102039.53
2023-02-27T07:01:27.169Z,102038.03
2023-02-27T07:03:56.209Z,102033.91
2023-02-27T07:07:30.988Z,102033.25
2023-02-27T07:09:12.157Z,102046.94
2023-02-27T07:11:39.834Z,102044.84
2023-02-27T07:14:07.739Z,102045.69
2023-02-27T07:16:36.334Z,102049.78
2023-02-27T07:19:06.974Z,102047.16
2023-02-27T07:21:36.119Z,102050.50
2023-02-27T07:24:04.933Z,102055.03
2023-02-27T07:26:32.615Z,102061.34
2023-02-27T07:29:00.358Z,102068.00
2023-02-27T07:31:29.105Z,102074.97
2023-02-27T07:33:56.829Z,102068.00
2023-02-27T07:36:26.380Z,102069.91
2023-02-27T07:38:54.346Z,102078.53
2023-02-27T07:41:30.403Z,102077.78
2023-02-27T07:43:58.789Z,102077.88
2023-02-27T07:46:27.811Z,102082.31
2023-02-27T07:48:55.978Z,102082.09
2023-02-27T07:51:25.126Z,102085.69
2023-02-27T07:53:52.848Z,102088.19
2023-02-27T07:56:20.599Z,102089.88
2023-02-27T07:58:48.289Z,102089.97
2023-02-27T08:01:15.990Z,102089.13
2023-02-27T08:03:43.646Z,102088.91
2023-02-27T08:06:11.276Z,102077.16
2023-02-27T08:08:40.405Z,102082.59
2023-02-27T08:11:08.047Z,102069.03
2023-02-27T08:13:59.455Z,102077.94
2023-02-27T08:16:23.453Z,102067.97
2023-02-27T08:18:51.109Z,102072.91
2023-02-27T08:21:18.833Z,102074.03
2023-02-27T08:23:48.090Z,102075.25
2023-02-27T08:26:15.783Z,102065.84
2023-02-27T08:28:43.484Z,102071.03
2023-02-27T08:31:11.207Z,102074.03
2023-02-27T08:33:39.185Z,102073.78
2023-02-27T08:36:08.273Z,102067.34
2023-02-27T08:38:36.002Z,102076.09
2023-02-27T08:41:05.085Z,102070.00
2023-02-27T08:43:32.781Z,102072.97
2023-02-27T08:46:00.748Z,102073.44
2023-02-27T08:48:28.423Z,102074.88
2023-02-27T08:50:57.868Z,102077.97
2023-02-27T08:53:26.107Z,102080.84
2023-02-27T08:55:53.809Z,102069.25
2023-02-27T08:58:22.858Z,102090.91
2023-02-27T09:00:50.576Z,102092.28
2023-02-27T09:03:18.260Z,102091.56
2023-02-27T09:05:45.917Z,102094.63
2023-02-27T09:08:13.538Z,102077.28
2023-02-27T09:10:41.812Z,102081.03
2023-02-27T09:13:10.129Z,102077.91
2023-02-27T09:15:39.182Z,102082.31
2023-02-27T09:18:07.110Z,102071.34
2023-02-27T09:20:36.209Z,102078.38
2023-02-27T09:23:04.414Z,102070.91
2023-02-27T09:25:32.348Z,102088.91
2023-02-27T09:28:00.006Z,102081.09
2023-02-27T09:30:27.916Z,102079.56
2023-02-27T09:32:56.950Z,102082.44
2023-02-27T09:35:25.680Z,102088.50
2023-02-27T09:37:53.470Z,102068.41
2023-02-27T09:40:24.565Z,102072.88
2023-02-27T09:42:53.437Z,102093.91
2023-02-27T09:45:24.607Z,102075.19
2023-02-27T09:47:54.987Z,102068.47
2023-02-27T09:50:38.537Z,102078.72
2023-02-27T09:53:08.471Z,102080.81
2023-02-27T09:55:40.589Z,102074.13
2023-02-27T09:58:20.169Z,102072.88
2023-02-27T10:00:50.158Z,102070.63
2023-02-27T10:03:27.953Z,102067.78
2023-02-27T10:06:08.766Z,102061.00
2023-02-27T10:08:40.581Z,102064.84
2023-02-27T10:11:10.026Z,102085.91
2023-02-27T10:13:46.963Z,102078.03
2023-02-27T10:16:16.870Z,102071.53
2023-02-27T10:18:52.435Z,102082.19
2023-02-27T10:21:24.951Z,102085.09
2023-02-27T10:23:56.538Z,102074.03
2023-02-27T10:26:26.418Z,102073.44
2023-02-27T10:28:54.369Z,102086.22
2023-02-27T10:31:24.207Z,102086.06
2023-02-27T10:33:52.242Z,102091.94
2023-02-27T10:36:33.003Z,102079.66
2023-02-27T10:39:03.322Z,102066.53
2023-02-27T10:41:31.044Z,102053.13
2023-02-27T10:44:00.222Z,102073.56
2023-02-27T10:46:29.987Z,102108.75
2023-02-27T10:49:00.153Z,102097.03
2023-02-27T10:51:31.526Z,102108.22
2023-02-27T10:54:19.909Z,102065.16
2023-02-27T10:56:50.431Z,102052.44
2023-02-27T10:59:20.527Z,102058.44
2023-02-27T11:01:50.943Z,102052.84
2023-02-27T11:04:26.097Z,102050.03
2023-02-27T11:06:56.393Z,102065.63
2023-02-27T11:09:26.152Z,102052.06
2023-02-27T11:11:54.308Z,102048.38
2023-02-27T11:14:27.955Z,102043.47
2023-02-27T11:16:57.114Z,102042.63
2023-02-27T11:19:27.272Z,102056.28
2023-02-27T11:22:04.708Z,102036.59
2023-02-27T11:24:32.949Z,102036.25
2023-02-27T11:27:03.678Z,102033.25
2023-02-27T11:29:31.451Z,102059.59
2023-02-27T11:32:01.160Z,102035.66
2023-02-27T11:34:32.085Z,102050.09
2023-02-27T11:37:03.423Z,102032.50
2023-02-27T11:39:34.788Z,102038.88
2023-02-27T11:42:10.692Z,102027.78
2023-02-27T11:44:50.331Z,102026.00
2023-02-27T11:47:23.322Z,102027.03
2023-02-27T11:50:06.442Z,102046.50
2023-02-27T11:52:39.872Z,102016.19
2023-02-27T11:55:15.943Z,102025.06
2023-02-27T11:57:46.315Z,102025.91
2023-02-27T12:00:19.822Z,102021.00
2023-02-27T12:02:52.564Z,102040.19
2023-02-27T12:05:22.756Z,102037.69
2023-02-27T12:07:54.455Z,102033.56
2023-02-27T12:10:23.849Z,102049.19
2023-02-27T12:12:53.948Z,102033.78
2023-02-27T12:15:29.344Z,102022.66
2023-02-27T12:18:04.787Z,102027.63
2023-02-27T12:20:37.013Z,102018.31
2023-02-27T12:23:16.702Z,101995.41
2023-02-27T12:25:48.702Z,101992.69
2023-02-27T12:28:28.196Z,101985.25
2023-02-27T12:31:07.625Z,101985.41
2023-02-27T12:33:40.292Z,102005.47
2023-02-27T12:36:11.907Z,102012.66
2023-02-27T12:38:41.220Z,101983.97
2023-02-27T12:41:23.460Z,101996.50
2023-02-27T12:43:57.273Z,102003.88
2023-02-27T12:46:36.955Z,101997.72
2023-02-27T12:49:16.813Z,101984.13
2023-02-27T12:51:51.236Z,101994.56
2023-02-27T12:54:29.827Z,102011.22
2023-02-27T12:57:03.892Z,101993.34
2023-02-27T12:59:45.593Z,102021.72
2023-02-27T13:02:27.117Z,101994.69
2023-02-27T13:05:01.753Z,101986.66
2023-02-27T13:07:32.694Z,101977.72
2023-02-27T13:10:05.695Z,102015.56
2023-02-27T13:12:38.641Z,101991.75
2023-02-27T13:15:08.118Z,102008.66
2023-02-27T13:17:39.294Z,102015.28
2023-02-27T13:20:18.934Z,102028.94
2023-02-27T13:22:51.341Z,102027.81
2023-02-27T13:25:21.152Z,102028.94
2023-02-27T13:27:50.625Z,102015.16
2023-02-27T13:30:23.965Z,102000.28
2023-02-27T13:33:08.959Z,102005.03
2023-02-27T13:35:45.430Z,101988.47
2023-02-27T13:38:34.330Z,101993.09
2023-02-27T13:41:38.602Z,101984.81
2023-02-27T13:44:41.265Z,101976.88
2023-02-27T13:47:39.767Z,101991.38
2023-02-27T13:50:40.691Z,101977.31
2023-02-27T13:53:11.035Z,102010.91
2023-02-27T13:55:40.054Z,102016.81
2023-02-27T13:58:17.803Z,101987.69
2023-02-27T14:00:55.734Z,101967.31
2023-02-27T14:03:25.839Z,101966.66
2023-02-27T14:05:55.256Z,101974.03
2023-02-27T14:08:24.783Z,101974.38
2023-02-27T14:10:57.834Z,101991.88
2023-02-27T14:13:59.084Z,102022.34
2023-02-27T14:16:57.662Z,102022.31
2023-02-27T14:19:50.384Z,101966.41
2023-02-27T14:22:38.796Z,101990.53
2023-02-27T14:25:17.615Z,101958.22
2023-02-27T14:27:52.353Z,101967.94
2023-02-27T14:30:26.881Z,101963.28
2023-02-27T14:32:59.581Z,101967.22
2023-02-27T14:35:28.101Z,101971.59
2023-02-27T14:37:55.826Z,101982.69
2023-02-27T14:40:30.429Z,101968.34
2023-02-27T14:43:04.654Z,101988.13
2023-02-27T14:45:32.566Z,102009.28
2023-02-27T14:48:02.085Z,102000.34
2023-02-27T14:50:34.177Z,102005.56
2023-02-27T14:53:03.671Z,102030.53
2023-02-27T14:55:32.843Z,102012.25
2023-02-27T14:58:02.587Z,101992.53
2023-02-27T15:00:33.397Z,101966.94
2023-02-27T15:03:12.051Z,101970.19
2023-02-27T15:05:40.144Z,101967.66
2023-02-27T15:08:08.769Z,101972.16
2023-02-27T15:10:36.803Z,101977.69
2023-02-27T15:13:04.472Z,101974.66
2023-02-27T15:15:32.899Z,101986.03
2023-02-27T15:18:01.960Z,101978.31
2023-02-27T15:20:31.959Z,101968.72
2023-02-27T15:23:00.342Z,101960.69
2023-02-27T15:25:30.820Z,101962.88
2023-02-27T15:28:02.646Z,101978.81
2023-02-27T15:30:30.865Z,101983.16
2023-02-27T15:32:59.030Z,101976.16
2023-02-27T15:35:33.356Z,102019.84
2023-02-27T15:38:02.510Z,102033.78
2023-02-27T15:40:31.578Z,102024.44
2023-02-27T15:42:59.850Z,102024.72
2023-02-27T15:45:31.009Z,102010.72
2023-02-27T15:47:58.966Z,102014.59
2023-02-27T15:50:32.616Z,102024.91
2023-02-27T15:53:04.241Z,102008.94
2023-02-27T15:55:34.031Z,102016.09
2023-02-27T15:58:03.649Z,102018.00
2023-02-27T16:00:32.830Z,102027.72
2023-02-27T16:03:01.189Z,102025.56
2023-02-27T16:05:34.825Z,102019.94
2023-02-27T16:08:03.616Z,102024.38
2023-02-27T16:10:36.837Z,102021.31
2023-02-27T16:13:20.921Z,102015.94
2023-02-27T16:15:59.647Z,102024.91
2023-02-27T16:18:30.881Z,102023.66
2023-02-27T16:21:11.293Z,102039.59
2023-02-27T16:23:39.026Z,102036.44
2023-02-27T16:26:29.299Z,102031.69
2023-02-27T16:29:00.165Z,102038.53
2023-02-27T16:31:30.497Z,102037.72
2023-02-27T16:33:59.922Z,102046.97
2023-02-27T16:36:30.655Z,102037.19
2023-02-27T16:38:58.491Z,102034.25
2023-02-27T16:41:26.261Z,102049.34
2023-02-27T16:43:54.682Z,102065.44
2023-02-27T16:46:22.791Z,102061.81
2023-02-27T16:48:52.030Z,102040.53
2023-02-27T16:51:23.860Z,102059.44
2023-02-27T16:53:53.975Z,102039.97
2023-02-27T16:56:35.735Z,102054.81
2023-02-27T16:59:05.522Z,102053.25
2023-02-27T17:01:34.350Z,102060.63
2023-02-27T17:04:02.181Z,102049.56
2023-02-27T17:06:30.577Z,102054.31
2023-02-27T17:08:59.746Z,102063.59
2023-02-27T17:11:27.630Z,102055.13
2023-02-27T17:13:55.283Z,102057.41
2023-02-27T17:16:22.965Z,102057.56
2023-02-27T17:18:50.695Z,102042.59
2023-02-27T17:21:18.614Z,102055.31
2023-02-27T17:23:46.423Z,102028.84
2023-02-27T17:26:15.929Z,102029.56
2023-02-27T17:28:43.568Z,102040.81
2023-02-27T17:31:12.279Z,102043.53
2023-02-27T17:33:39.986Z,102046.44
2023-02-27T17:36:10.293Z,102050.75
2023-02-27T17:38:38.242Z,102076.34
2023-02-27T17:41:08.002Z,102081.22
2023-02-27T17:43:37.434Z,102092.38
2023-02-27T17:46:06.951Z,102080.69
2023-02-27T17:48:35.600Z,102062.69
2023-02-27T17:51:07.157Z,102073.00
2023-02-27T17:53:35.716Z,102074.56
2023-02-27T17:56:03.948Z,102079.59
2023-02-27T17:58:32.119Z,102077.44
2023-02-27T18:01:06.155Z,102082.78
2023-02-27T18:03:34.652Z,102087.84
2023-02-27T18:06:02.462Z,102081.97
2023-02-27T18:08:31.402Z,102086.66
2023-02-27T18:10:59.526Z,102081.75
2023-02-27T18:13:28.123Z,102082.13
2023-02-27T18:15:56.742Z,102082.72
2023-02-27T18:18:25.839Z,102087.75
2023-02-27T18:21:01.525Z,102081.38
2023-02-27T18:23:29.390Z,102082.13
2023-02-27T18:25:57.954Z,102087.25
2023-02-27T18:28:25.839Z,102088.09
2023-02-27T18:30:53.605Z,102088.31
2023-02-27T18:33:23.278Z,102092.13
2023-02-27T18:35:52.407Z,102091.63
2023-02-27T18:38:20.163Z,102089.00
2023-02-27T18:40:47.928Z,102093.25
2023-02-27T18:43:15.698Z,102085.84
2023-02-27T18:45:43.518Z,102087.59
2023-02-27T18:48:11.207Z,102092.06
2023-02-27T18:50:38.875Z,102077.19
2023-02-27T18:53:07.947Z,102084.50
2023-02-27T18:55:36.303Z,102081.88
2023-02-27T18:58:06.031Z,102081.88
2023-02-27T19:00:33.802Z,102067.81
2023-02-27T19:03:01.533Z,102075.66
2023-02-27T19:05:29.216Z,102087.41
2023-02-27T19:07:57.492Z,102083.31
2023-02-27T19:10:26.795Z,102082.34
2023-02-27T19:12:54.785Z,102088.09
2023-02-27T19:15:22.520Z,102096.28
2023-02-27T19:17:50.262Z,102094.13
2023-02-27T19:20:18.629Z,102099.13
2023-02-27T19:22:46.437Z,102100.69
2023-02-27T19:25:14.247Z,102106.84
2023-02-27T19:27:44.795Z,102109.81
2023-02-27T19:30:13.433Z,102108.25
2023-02-27T19:32:41.235Z,102111.09
2023-02-27T19:35:14.089Z,102111.66
2023-02-27T19:37:42.125Z,102108.19
2023-02-27T19:40:11.596Z,102109.16
2023-02-27T19:42:42.065Z,102120.03
2023-02-27T19:45:11.876Z,102120.16
2023-02-27T19:47:39.641Z,102114.13
2023-02-27T19:50:08.294Z,102116.16
2023-02-27T19:52:36.421Z,102112.38
2023-02-27T19:55:04.924Z,102107.66
2023-02-27T19:57:34.675Z,102106.31
2023-02-27T20:00:02.338Z,102109.28
2023-02-27T20:02:31.406Z,102108.25
2023-02-27T20:04:59.411Z,102109.69
2023-02-27T20:07:28.980Z,102110.66
2023-02-27T20:09:56.962Z,102115.47
2023-02-27T20:12:25.726Z,102104.88
2023-02-27T20:14:53.832Z,102099.00
2023-02-27T20:17:21.439Z,102107.47
2023-02-27T20:19:50.526Z,102109.50
2023-02-27T20:22:18.185Z,102112.81
2023-02-27T20:24:45.942Z,102117.97
2023-02-27T20:27:15.187Z,102117.88
2023-02-27T20:29:43.055Z,102120.94
2023-02-27T20:32:10.986Z,102116.09
2023-02-27T20:34:38.922Z,102119.97
2023-02-27T20:37:08.005Z,102120.97
2023-02-27T20:39:36.859Z,102127.16
2023-02-27T20:42:04.651Z,102119.47
2023-02-27T20:44:32.327Z,102115.25
2023-02-27T20:47:00.044Z,102112.00
2023-02-27T20:49:28.308Z,102108.41
2023-02-27T20:51:56.104Z,102109.69
2023-02-27T20:54:25.660Z,102111.81
2023-02-27T20:56:54.343Z,102110.09
2023-02-27T20:59:23.456Z,102106.09
2023-02-27T21:01:52.528Z,102113.47
2023-02-27T21:04:22.175Z,102105.50
2023-02-27T21:06:50.050Z,102116.03
2023-02-27T21:09:18.836Z,102115.16
2023-02-27T21:11:48.118Z,102126.09
2023-02-27T21:14:15.883Z,102124.00
2023-02-27T21:16:43.529Z,102129.16
2023-02-27T21:19:11.252Z,102131.28
2023-02-27T21:21:39.034Z,102130.75
2023-02-27T21:24:07.570Z,102127.31
2023-02-27T21:26:37.886Z,102138.59
2023-02-27T21:29:09.990Z,102131.97
2023-02-27T21:31:39.244Z,102128.19
2023-02-27T21:34:09.384Z,102130.28
2023-02-27T21:36:42.233Z,102135.34
2023-02-27T21:39:13.072Z,102131.16
2023-02-27T21:41:40.797Z,102125.03
2023-02-27T21:44:13.204Z,102129.91
2023-02-27T21:46:41.035Z,102123.78
2023-02-27T21:49:08.708Z,102123.38
2023-02-27T21:51:40.813Z,102121.78
2023-02-27T21:54:11.193Z,102121.47
2023-02-27T21:56:39.782Z,102130.75
2023-02-27T21:59:09.421Z,102134.81
2023-02-27T22:01:37.640Z,102134.28
2023-02-27T22:04:06.064Z,102135.09
2023-02-27T22:06:35.551Z,102146.28
2023-02-27T22:09:06.684Z,102146.28
2023-02-27T22:11:35.549Z,102146.28
2023-02-27T22:14:03.367Z,102149.59
2023-02-27T22:16:32.573Z,102154.34
2023-02-27T22:19:00.563Z,102156.25
2023-02-27T22:21:29.083Z,102162.25
2023-02-27T22:23:57.861Z,102153.47
2023-02-27T22:26:28.136Z,102148.47
2023-02-27T22:28:57.223Z,102160.50
2023-02-27T22:31:28.154Z,102159.16
2023-02-27T22:34:01.689Z,102157.00
2023-02-27T22:36:30.844Z,102154.63
2023-02-27T22:38:59.162Z,102158.97
2023-02-27T22:41:28.996Z,102165.16
2023-02-27T22:43:57.338Z,102170.34
2023-02-27T22:46:29.461Z,102159.28
2023-02-27T22:49:00.162Z,102154.88
2023-02-27T22:51:29.033Z,102156.78
2023-02-27T22:53:58.423Z,102167.84
2023-02-27T22:56:26.837Z,102164.13
2023-02-27T22:58:54.840Z,102159.72
2023-02-27T23:01:24.344Z,102163.78
2023-02-27T23:03:53.920Z,102165.84
2023-02-27T23:06:25.369Z,102171.00
2023-02-27T23:08:53.402Z,102160.91
2023-02-27T23:11:22.014Z,102178.09
2023-02-27T23:13:49.864Z,102174.59
2023-02-27T23:16:18.152Z,102173.44
2023-02-27T23:18:47.555Z,102173.91
2023-02-27T23:21:16.561Z,102177.22
2023-02-27T23:23:45.669Z,102178.44
2023-02-27T23:26:14.103Z,102170.19
2023-02-27T23:28:42.076Z,102176.97
2023-02-27T23:31:09.990Z,102178.63
2023-02-27T23:33:38.187Z,102167.50
2023-02-27T23:36:06.255Z,102172.28
2023-02-27T23:38:34.075Z,102167.75
2023-02-27T23:41:07.556Z,102171.16
2023-02-27T23:43:52.817Z,102175.88
2023-02-27T23:46:20.734Z,102181.66
2023-02-27T23:48:48.735Z,102175.75
2023-02-27T23:51:16.424Z,102184.22
2023-02-27T23:53:45.047Z,102176.84
2023-02-27T23:56:16.428Z,102182.59
2023-02-27T23:58:44.206Z,102184.66
